sensor_id;sensor_type;location;lat;lon;timestamp;P1;durP1;ratioP1;P2;durP2;ratioP2
23866;SDS011;12114;53.404;-1.502;2022-08-19T00:00:19;4.18;;;3.75;;
23866;SDS011;12114;53.404;-1.502;2022-08-19T00:02:45;5.93;;;4.53;;
23866;SDS011;12114;53.404;-1.502;2022-08-19T00:05:12;5.32;;;3.83;;
23866;SDS011;12114;53.404;-1.502;2022-08-19T00:07:38;4.72;;;4.28;;
23866;SDS011;12114;53.404;-1.502;2022-08-19T00:10:04;4.40;;;3.75;;
23866;SDS011;12114;53.404;-1.502;2022-08-19T00:12:31;4.38;;;3.97;;
23866;SDS011;12114;53.404;-1.502;2022-08-19T00:14:56;5.97;;;4.10;;
23866;SDS011;12114;53.404;-1.502;2022-08-19T00:17:22;5.88;;;4.18;;
23866;SDS011;12114;53.404;-1.502;2022-08-19T00:19:49;5.82;;;3.58;;
23866;SDS011;12114;53.404;-1.502;2022-08-19T00:22:15;6.13;;;2.38;;
23866;SDS011;12114;53.404;-1.502;2022-08-19T00:24:42;8.32;;;1.65;;
23866;SDS011;12114;53.404;-1.502;2022-08-19T00:27:11;9.15;;;1.77;;
23866;SDS011;12114;53.404;-1.502;2022-08-19T00:29:37;7.90;;;2.08;;
23866;SDS011;12114;53.404;-1.502;2022-08-19T00:32:03;7.03;;;1.92;;
23866;SDS011;12114;53.404;-1.502;2022-08-19T00:34:28;8.85;;;1.90;;
23866;SDS011;12114;53.404;-1.502;2022-08-19T00:36:55;8.35;;;2.30;;
23866;SDS011;12114;53.404;-1.502;2022-08-19T00:39:20;9.75;;;2.10;;
23866;SDS011;12114;53.404;-1.502;2022-08-19T00:41:46;9.65;;;2.25;;
23866;SDS011;12114;53.404;-1.502;2022-08-19T00:46:40;11.15;;;2.10;;
23866;SDS011;12114;53.404;-1.502;2022-08-19T00:49:12;7.57;;;2.08;;
23866;SDS011;12114;53.404;-1.502;2022-08-19T00:51:40;8.18;;;1.90;;
23866;SDS011;12114;53.404;-1.502;2022-08-19T00:54:09;13.88;;;2.55;;
23866;SDS011;12114;53.404;-1.502;2022-08-19T00:56:35;9.65;;;2.42;;
23866;SDS011;12114;53.404;-1.502;2022-08-19T00:59:04;11.93;;;2.10;;
23866;SDS011;12114;53.404;-1.502;2022-08-19T01:01:35;10.05;;;2.63;;
23866;SDS011;12114;53.404;-1.502;2022-08-19T01:04:19;8.93;;;2.28;;
23866;SDS011;12114;53.404;-1.502;2022-08-19T01:06:45;9.95;;;2.50;;
23866;SDS011;12114;53.404;-1.502;2022-08-19T01:09:13;8.27;;;2.08;;
23866;SDS011;12114;53.404;-1.502;2022-08-19T01:11:40;13.52;;;2.67;;
23866;SDS011;12114;53.404;-1.502;2022-08-19T01:14:06;9.13;;;2.60;;
23866;SDS011;12114;53.404;-1.502;2022-08-19T01:16:34;14.00;;;2.38;;
23866;SDS011;12114;53.404;-1.502;2022-08-19T01:19:00;9.50;;;2.20;;
23866;SDS011;12114;53.404;-1.502;2022-08-19T01:23:58;10.60;;;2.13;;
23866;SDS011;12114;53.404;-1.502;2022-08-19T01:26:24;12.60;;;2.00;;
23866;SDS011;12114;53.404;-1.502;2022-08-19T01:28:55;10.80;;;2.45;;
23866;SDS011;12114;53.404;-1.502;2022-08-19T01:31:25;9.35;;;2.38;;
23866;SDS011;12114;53.404;-1.502;2022-08-19T01:33:51;11.40;;;2.22;;
23866;SDS011;12114;53.404;-1.502;2022-08-19T01:36:50;12.07;;;2.17;;
23866;SDS011;12114;53.404;-1.502;2022-08-19T01:39:16;13.15;;;2.70;;
23866;SDS011;12114;53.404;-1.502;2022-08-19T01:41:42;7.63;;;2.13;;
23866;SDS011;12114;53.404;-1.502;2022-08-19T01:44:07;13.95;;;2.92;;
23866;SDS011;12114;53.404;-1.502;2022-08-19T01:46:34;8.65;;;2.17;;
23866;SDS011;12114;53.404;-1.502;2022-08-19T01:49:00;11.70;;;3.00;;
23866;SDS011;12114;53.404;-1.502;2022-08-19T01:51:27;11.68;;;2.60;;
23866;SDS011;12114;53.404;-1.502;2022-08-19T01:53:53;10.57;;;2.28;;
23866;SDS011;12114;53.404;-1.502;2022-08-19T01:56:18;17.13;;;2.92;;
23866;SDS011;12114;53.404;-1.502;2022-08-19T01:58:45;9.65;;;2.28;;
23866;SDS011;12114;53.404;-1.502;2022-08-19T02:01:12;17.17;;;2.63;;
23866;SDS011;12114;53.404;-1.502;2022-08-19T02:03:39;14.23;;;2.90;;
23866;SDS011;12114;53.404;-1.502;2022-08-19T02:06:04;16.85;;;2.63;;
23866;SDS011;12114;53.404;-1.502;2022-08-19T02:08:31;13.57;;;2.72;;
23866;SDS011;12114;53.404;-1.502;2022-08-19T02:10:57;10.05;;;2.80;;
23866;SDS011;12114;53.404;-1.502;2022-08-19T02:13:23;11.85;;;2.20;;
23866;SDS011;12114;53.404;-1.502;2022-08-19T02:15:48;11.75;;;2.47;;
23866;SDS011;12114;53.404;-1.502;2022-08-19T02:18:14;14.63;;;2.70;;
23866;SDS011;12114;53.404;-1.502;2022-08-19T02:20:40;17.67;;;2.55;;
23866;SDS011;12114;53.404;-1.502;2022-08-19T02:23:06;12.13;;;2.78;;
23866;SDS011;12114;53.404;-1.502;2022-08-19T02:25:31;17.65;;;3.13;;
23866;SDS011;12114;53.404;-1.502;2022-08-19T02:27:57;15.15;;;3.10;;
23866;SDS011;12114;53.404;-1.502;2022-08-19T02:30:23;11.00;;;2.28;;
23866;SDS011;12114;53.404;-1.502;2022-08-19T02:32:49;15.30;;;2.20;;
23866;SDS011;12114;53.404;-1.502;2022-08-19T02:35:15;11.18;;;2.35;;
23866;SDS011;12114;53.404;-1.502;2022-08-19T02:37:41;13.82;;;2.10;;
23866;SDS011;12114;53.404;-1.502;2022-08-19T02:40:26;9.77;;;2.35;;
23866;SDS011;12114;53.404;-1.502;2022-08-19T02:42:52;18.05;;;2.38;;
23866;SDS011;12114;53.404;-1.502;2022-08-19T02:45:17;12.90;;;2.10;;
23866;SDS011;12114;53.404;-1.502;2022-08-19T02:47:43;16.52;;;2.75;;
23866;SDS011;12114;53.404;-1.502;2022-08-19T02:50:08;11.15;;;2.20;;
23866;SDS011;12114;53.404;-1.502;2022-08-19T02:52:34;14.70;;;2.67;;
23866;SDS011;12114;53.404;-1.502;2022-08-19T02:55:00;11.55;;;2.42;;
23866;SDS011;12114;53.404;-1.502;2022-08-19T02:57:26;12.85;;;2.47;;
23866;SDS011;12114;53.404;-1.502;2022-08-19T02:59:52;13.48;;;2.45;;
23866;SDS011;12114;53.404;-1.502;2022-08-19T03:02:20;15.05;;;2.72;;
23866;SDS011;12114;53.404;-1.502;2022-08-19T03:04:46;11.55;;;2.45;;
23866;SDS011;12114;53.404;-1.502;2022-08-19T03:07:14;15.20;;;2.72;;
23866;SDS011;12114;53.404;-1.502;2022-08-19T03:09:40;17.25;;;3.00;;
23866;SDS011;12114;53.404;-1.502;2022-08-19T03:12:08;17.48;;;2.50;;
23866;SDS011;12114;53.404;-1.502;2022-08-19T03:14:36;17.23;;;2.92;;
23866;SDS011;12114;53.404;-1.502;2022-08-19T03:17:02;15.18;;;2.75;;
23866;SDS011;12114;53.404;-1.502;2022-08-19T03:19:29;18.90;;;2.53;;
23866;SDS011;12114;53.404;-1.502;2022-08-19T03:21:55;15.65;;;3.35;;
23866;SDS011;12114;53.404;-1.502;2022-08-19T03:24:20;12.30;;;2.60;;
23866;SDS011;12114;53.404;-1.502;2022-08-19T03:26:50;14.50;;;2.58;;
23866;SDS011;12114;53.404;-1.502;2022-08-19T03:29:19;14.35;;;3.03;;
23866;SDS011;12114;53.404;-1.502;2022-08-19T03:31:45;12.38;;;2.20;;
23866;SDS011;12114;53.404;-1.502;2022-08-19T03:34:16;13.25;;;2.63;;
23866;SDS011;12114;53.404;-1.502;2022-08-19T03:36:42;15.55;;;2.50;;
23866;SDS011;12114;53.404;-1.502;2022-08-19T03:39:09;13.45;;;2.60;;
23866;SDS011;12114;53.404;-1.502;2022-08-19T03:41:38;13.88;;;2.47;;
23866;SDS011;12114;53.404;-1.502;2022-08-19T03:44:04;19.73;;;2.92;;
23866;SDS011;12114;53.404;-1.502;2022-08-19T03:46:32;13.88;;;2.22;;
23866;SDS011;12114;53.404;-1.502;2022-08-19T03:48:59;17.75;;;3.03;;
23866;SDS011;12114;53.404;-1.502;2022-08-19T03:51:26;13.30;;;2.20;;
23866;SDS011;12114;53.404;-1.502;2022-08-19T03:53:52;18.85;;;3.05;;
23866;SDS011;12114;53.404;-1.502;2022-08-19T03:56:18;19.52;;;3.05;;
23866;SDS011;12114;53.404;-1.502;2022-08-19T03:58:43;15.18;;;2.75;;
23866;SDS011;12114;53.404;-1.502;2022-08-19T04:01:10;21.27;;;2.80;;
23866;SDS011;12114;53.404;-1.502;2022-08-19T04:03:38;16.55;;;2.50;;
23866;SDS011;12114;53.404;-1.502;2022-08-19T04:06:11;21.25;;;3.58;;
23866;SDS011;12114;53.404;-1.502;2022-08-19T04:08:38;12.25;;;2.47;;
23866;SDS011;12114;53.404;-1.502;2022-08-19T04:11:08;16.17;;;2.92;;
23866;SDS011;12114;53.404;-1.502;2022-08-19T04:13:34;14.52;;;2.95;;
23866;SDS011;12114;53.404;-1.502;2022-08-19T04:15:59;17.80;;;2.50;;
23866;SDS011;12114;53.404;-1.502;2022-08-19T04:18:25;19.73;;;3.28;;
23866;SDS011;12114;53.404;-1.502;2022-08-19T04:20:51;13.35;;;2.20;;
23866;SDS011;12114;53.404;-1.502;2022-08-19T04:23:16;14.23;;;2.50;;
23866;SDS011;12114;53.404;-1.502;2022-08-19T04:25:43;15.35;;;2.95;;
23866;SDS011;12114;53.404;-1.502;2022-08-19T04:28:10;15.40;;;2.80;;
23866;SDS011;12114;53.404;-1.502;2022-08-19T04:30:40;17.45;;;3.20;;
23866;SDS011;12114;53.404;-1.502;2022-08-19T04:33:05;17.73;;;2.90;;
23866;SDS011;12114;53.404;-1.502;2022-08-19T04:35:38;14.82;;;3.33;;
23866;SDS011;12114;53.404;-1.502;2022-08-19T04:38:04;23.98;;;3.60;;
23866;SDS011;12114;53.404;-1.502;2022-08-19T04:40:29;14.80;;;2.42;;
23866;SDS011;12114;53.404;-1.502;2022-08-19T04:43:14;19.52;;;2.88;;
23866;SDS011;12114;53.404;-1.502;2022-08-19T04:45:43;14.38;;;2.83;;
23866;SDS011;12114;53.404;-1.502;2022-08-19T04:48:08;12.02;;;2.58;;
23866;SDS011;12114;53.404;-1.502;2022-08-19T04:50:35;19.95;;;2.90;;
23866;SDS011;12114;53.404;-1.502;2022-08-19T04:53:00;14.75;;;2.72;;
23866;SDS011;12114;53.404;-1.502;2022-08-19T04:55:26;17.02;;;2.83;;
23866;SDS011;12114;53.404;-1.502;2022-08-19T04:57:51;15.85;;;2.70;;
23866;SDS011;12114;53.404;-1.502;2022-08-19T05:00:17;14.98;;;2.40;;
23866;SDS011;12114;53.404;-1.502;2022-08-19T05:02:42;18.50;;;3.10;;
23866;SDS011;12114;53.404;-1.502;2022-08-19T05:05:08;18.13;;;3.15;;
23866;SDS011;12114;53.404;-1.502;2022-08-19T05:07:33;17.13;;;2.85;;
23866;SDS011;12114;53.404;-1.502;2022-08-19T05:09:59;22.20;;;3.35;;
23866;SDS011;12114;53.404;-1.502;2022-08-19T05:12:25;15.45;;;3.80;;
23866;SDS011;12114;53.404;-1.502;2022-08-19T05:14:50;19.85;;;3.30;;
23866;SDS011;12114;53.404;-1.502;2022-08-19T05:17:17;14.57;;;2.67;;
23866;SDS011;12114;53.404;-1.502;2022-08-19T05:19:43;15.98;;;2.63;;
23866;SDS011;12114;53.404;-1.502;2022-08-19T05:22:27;24.23;;;3.28;;
23866;SDS011;12114;53.404;-1.502;2022-08-19T05:25:03;19.25;;;3.55;;
23866;SDS011;12114;53.404;-1.502;2022-08-19T05:27:28;20.70;;;3.40;;
23866;SDS011;12114;53.404;-1.502;2022-08-19T05:29:53;14.07;;;2.90;;
23866;SDS011;12114;53.404;-1.502;2022-08-19T05:32:19;12.32;;;2.80;;
23866;SDS011;12114;53.404;-1.502;2022-08-19T05:34:44;17.67;;;3.08;;
23866;SDS011;12114;53.404;-1.502;2022-08-19T05:37:10;15.75;;;3.05;;
23866;SDS011;12114;53.404;-1.502;2022-08-19T05:39:36;18.20;;;2.90;;
23866;SDS011;12114;53.404;-1.502;2022-08-19T05:42:07;17.77;;;3.10;;
23866;SDS011;12114;53.404;-1.502;2022-08-19T05:44:33;19.83;;;3.30;;
23866;SDS011;12114;53.404;-1.502;2022-08-19T05:47:03;14.55;;;3.15;;
23866;SDS011;12114;53.404;-1.502;2022-08-19T05:49:30;18.83;;;2.85;;
23866;SDS011;12114;53.404;-1.502;2022-08-19T05:51:55;22.05;;;3.65;;
23866;SDS011;12114;53.404;-1.502;2022-08-19T05:54:24;15.25;;;2.85;;
23866;SDS011;12114;53.404;-1.502;2022-08-19T05:56:50;18.80;;;3.35;;
23866;SDS011;12114;53.404;-1.502;2022-08-19T05:59:16;13.07;;;3.33;;
23866;SDS011;12114;53.404;-1.502;2022-08-19T06:01:45;21.10;;;3.67;;
23866;SDS011;12114;53.404;-1.502;2022-08-19T06:04:12;15.05;;;2.53;;
23866;SDS011;12114;53.404;-1.502;2022-08-19T06:06:38;17.40;;;2.60;;
23866;SDS011;12114;53.404;-1.502;2022-08-19T06:09:06;11.63;;;2.58;;
23866;SDS011;12114;53.404;-1.502;2022-08-19T06:11:33;15.73;;;2.95;;
23866;SDS011;12114;53.404;-1.502;2022-08-19T06:14:00;18.70;;;2.75;;
23866;SDS011;12114;53.404;-1.502;2022-08-19T06:16:28;11.80;;;2.20;;
23866;SDS011;12114;53.404;-1.502;2022-08-19T06:18:58;14.35;;;2.60;;
23866;SDS011;12114;53.404;-1.502;2022-08-19T06:21:28;20.98;;;2.78;;
23866;SDS011;12114;53.404;-1.502;2022-08-19T06:23:55;18.50;;;2.70;;
23866;SDS011;12114;53.404;-1.502;2022-08-19T06:26:20;17.15;;;2.97;;
23866;SDS011;12114;53.404;-1.502;2022-08-19T06:28:47;14.88;;;2.67;;
23866;SDS011;12114;53.404;-1.502;2022-08-19T06:31:13;19.42;;;2.05;;
23866;SDS011;12114;53.404;-1.502;2022-08-19T06:33:39;14.35;;;2.20;;
23866;SDS011;12114;53.404;-1.502;2022-08-19T06:36:06;11.10;;;2.10;;
23866;SDS011;12114;53.404;-1.502;2022-08-19T06:38:32;18.45;;;2.45;;
23866;SDS011;12114;53.404;-1.502;2022-08-19T06:41:02;14.10;;;2.55;;
23866;SDS011;12114;53.404;-1.502;2022-08-19T06:43:28;13.35;;;2.65;;
23866;SDS011;12114;53.404;-1.502;2022-08-19T06:45:53;12.45;;;2.22;;
23866;SDS011;12114;53.404;-1.502;2022-08-19T06:48:19;18.10;;;3.30;;
23866;SDS011;12114;53.404;-1.502;2022-08-19T06:50:45;12.23;;;2.53;;
23866;SDS011;12114;53.404;-1.502;2022-08-19T06:53:13;17.00;;;2.80;;
23866;SDS011;12114;53.404;-1.502;2022-08-19T06:55:38;14.38;;;2.80;;
23866;SDS011;12114;53.404;-1.502;2022-08-19T06:58:05;16.67;;;3.10;;
23866;SDS011;12114;53.404;-1.502;2022-08-19T07:00:31;18.95;;;3.38;;
23866;SDS011;12114;53.404;-1.502;2022-08-19T07:03:00;16.73;;;2.95;;
23866;SDS011;12114;53.404;-1.502;2022-08-19T07:05:26;15.40;;;2.58;;
23866;SDS011;12114;53.404;-1.502;2022-08-19T07:07:52;17.50;;;2.90;;
23866;SDS011;12114;53.404;-1.502;2022-08-19T07:10:18;13.07;;;2.92;;
23866;SDS011;12114;53.404;-1.502;2022-08-19T07:12:44;19.10;;;2.85;;
23866;SDS011;12114;53.404;-1.502;2022-08-19T07:15:10;15.25;;;3.08;;
23866;SDS011;12114;53.404;-1.502;2022-08-19T07:17:36;15.77;;;3.45;;
23866;SDS011;12114;53.404;-1.502;2022-08-19T07:20:04;16.45;;;2.90;;
23866;SDS011;12114;53.404;-1.502;2022-08-19T07:22:35;17.70;;;3.05;;
23866;SDS011;12114;53.404;-1.502;2022-08-19T07:25:00;19.25;;;3.63;;
23866;SDS011;12114;53.404;-1.502;2022-08-19T07:27:28;22.40;;;2.88;;
23866;SDS011;12114;53.404;-1.502;2022-08-19T07:29:53;14.80;;;2.90;;
23866;SDS011;12114;53.404;-1.502;2022-08-19T07:32:19;18.42;;;3.53;;
23866;SDS011;12114;53.404;-1.502;2022-08-19T07:34:45;15.13;;;3.45;;
23866;SDS011;12114;53.404;-1.502;2022-08-19T07:37:10;18.17;;;2.70;;
23866;SDS011;12114;53.404;-1.502;2022-08-19T07:39:36;15.05;;;2.47;;
23866;SDS011;12114;53.404;-1.502;2022-08-19T07:42:04;13.15;;;2.13;;
23866;SDS011;12114;53.404;-1.502;2022-08-19T07:44:32;12.18;;;3.20;;
23866;SDS011;12114;53.404;-1.502;2022-08-19T07:46:59;14.82;;;2.55;;
23866;SDS011;12114;53.404;-1.502;2022-08-19T07:49:25;19.50;;;3.13;;
23866;SDS011;12114;53.404;-1.502;2022-08-19T07:51:59;16.92;;;3.30;;
23866;SDS011;12114;53.404;-1.502;2022-08-19T07:54:27;13.82;;;2.50;;
23866;SDS011;12114;53.404;-1.502;2022-08-19T07:56:53;11.10;;;2.35;;
23866;SDS011;12114;53.404;-1.502;2022-08-19T07:59:18;10.88;;;2.28;;
23866;SDS011;12114;53.404;-1.502;2022-08-19T08:01:45;14.57;;;2.58;;
23866;SDS011;12114;53.404;-1.502;2022-08-19T08:04:11;15.07;;;2.88;;
23866;SDS011;12114;53.404;-1.502;2022-08-19T08:06:55;19.25;;;2.88;;
23866;SDS011;12114;53.404;-1.502;2022-08-19T08:09:40;17.42;;;2.67;;
23866;SDS011;12114;53.404;-1.502;2022-08-19T08:14:33;13.23;;;2.47;;
23866;SDS011;12114;53.404;-1.502;2022-08-19T08:17:03;15.50;;;2.40;;
23866;SDS011;12114;53.404;-1.502;2022-08-19T08:19:29;14.75;;;2.78;;
23866;SDS011;12114;53.404;-1.502;2022-08-19T08:21:57;13.00;;;2.30;;
23866;SDS011;12114;53.404;-1.502;2022-08-19T08:24:23;12.25;;;2.00;;
23866;SDS011;12114;53.404;-1.502;2022-08-19T08:26:48;13.85;;;2.70;;
23866;SDS011;12114;53.404;-1.502;2022-08-19T08:29:14;19.08;;;2.47;;
23866;SDS011;12114;53.404;-1.502;2022-08-19T08:31:40;8.93;;;2.00;;
23866;SDS011;12114;53.404;-1.502;2022-08-19T08:34:08;13.93;;;2.97;;
23866;SDS011;12114;53.404;-1.502;2022-08-19T08:36:36;14.30;;;2.55;;
23866;SDS011;12114;53.404;-1.502;2022-08-19T08:39:05;12.68;;;2.10;;
23866;SDS011;12114;53.404;-1.502;2022-08-19T08:44:16;13.35;;;2.50;;
23866;SDS011;12114;53.404;-1.502;2022-08-19T08:51:40;11.48;;;2.40;;
23866;SDS011;12114;53.404;-1.502;2022-08-19T08:54:08;13.25;;;2.22;;
23866;SDS011;12114;53.404;-1.502;2022-08-19T08:56:34;13.85;;;2.33;;
23866;SDS011;12114;53.404;-1.502;2022-08-19T08:59:05;13.32;;;2.10;;
23866;SDS011;12114;53.404;-1.502;2022-08-19T09:01:35;11.40;;;2.03;;
23866;SDS011;12114;53.404;-1.502;2022-08-19T09:04:05;13.23;;;2.47;;
23866;SDS011;12114;53.404;-1.502;2022-08-19T09:09:04;12.18;;;2.22;;
23866;SDS011;12114;53.404;-1.502;2022-08-19T09:14:21;15.15;;;2.45;;
23866;SDS011;12114;53.404;-1.502;2022-08-19T09:16:51;13.50;;;2.25;;
23866;SDS011;12114;53.404;-1.502;2022-08-19T09:19:49;11.85;;;2.42;;
23866;SDS011;12114;53.404;-1.502;2022-08-19T09:22:14;10.18;;;2.30;;
23866;SDS011;12114;53.404;-1.502;2022-08-19T09:24:40;15.40;;;2.80;;
23866;SDS011;12114;53.404;-1.502;2022-08-19T09:27:06;9.68;;;2.42;;
23866;SDS011;12114;53.404;-1.502;2022-08-19T09:29:32;13.93;;;2.42;;
23866;SDS011;12114;53.404;-1.502;2022-08-19T09:31:58;14.13;;;2.40;;
23866;SDS011;12114;53.404;-1.502;2022-08-19T09:34:24;12.02;;;2.65;;
23866;SDS011;12114;53.404;-1.502;2022-08-19T09:36:49;11.23;;;2.50;;
23866;SDS011;12114;53.404;-1.502;2022-08-19T09:39:20;13.98;;;2.58;;
23866;SDS011;12114;53.404;-1.502;2022-08-19T09:41:46;10.77;;;1.80;;
23866;SDS011;12114;53.404;-1.502;2022-08-19T09:44:11;14.35;;;2.55;;
23866;SDS011;12114;53.404;-1.502;2022-08-19T09:46:37;11.65;;;2.47;;
23866;SDS011;12114;53.404;-1.502;2022-08-19T09:49:03;11.93;;;2.30;;
23866;SDS011;12114;53.404;-1.502;2022-08-19T09:51:31;16.60;;;2.22;;
23866;SDS011;12114;53.404;-1.502;2022-08-19T09:53:59;12.60;;;2.40;;
23866;SDS011;12114;53.404;-1.502;2022-08-19T09:56:29;11.70;;;2.47;;
23866;SDS011;12114;53.404;-1.502;2022-08-19T09:58:57;11.10;;;2.05;;
23866;SDS011;12114;53.404;-1.502;2022-08-19T10:01:23;11.00;;;2.33;;
23866;SDS011;12114;53.404;-1.502;2022-08-19T10:03:50;12.35;;;2.33;;
23866;SDS011;12114;53.404;-1.502;2022-08-19T10:06:18;13.05;;;2.10;;
23866;SDS011;12114;53.404;-1.502;2022-08-19T10:08:45;10.77;;;2.38;;
23866;SDS011;12114;53.404;-1.502;2022-08-19T10:11:10;7.80;;;1.77;;
23866;SDS011;12114;53.404;-1.502;2022-08-19T10:13:36;10.27;;;1.95;;
23866;SDS011;12114;53.404;-1.502;2022-08-19T10:16:04;7.90;;;1.80;;
23866;SDS011;12114;53.404;-1.502;2022-08-19T10:18:30;9.10;;;2.10;;
23866;SDS011;12114;53.404;-1.502;2022-08-19T10:21:06;13.55;;;2.33;;
23866;SDS011;12114;53.404;-1.502;2022-08-19T10:23:33;10.57;;;2.10;;
23866;SDS011;12114;53.404;-1.502;2022-08-19T10:25:59;7.85;;;1.95;;
23866;SDS011;12114;53.404;-1.502;2022-08-19T10:28:25;12.85;;;1.95;;
23866;SDS011;12114;53.404;-1.502;2022-08-19T10:30:50;8.43;;;2.17;;
23866;SDS011;12114;53.404;-1.502;2022-08-19T10:33:16;10.52;;;1.73;;
23866;SDS011;12114;53.404;-1.502;2022-08-19T10:35:41;7.60;;;1.60;;
23866;SDS011;12114;53.404;-1.502;2022-08-19T10:38:07;8.98;;;1.70;;
23866;SDS011;12114;53.404;-1.502;2022-08-19T10:40:32;8.95;;;1.83;;
23866;SDS011;12114;53.404;-1.502;2022-08-19T10:42:57;8.90;;;1.70;;
23866;SDS011;12114;53.404;-1.502;2022-08-19T10:45:23;10.27;;;1.85;;
23866;SDS011;12114;53.404;-1.502;2022-08-19T10:47:52;8.90;;;2.00;;
23866;SDS011;12114;53.404;-1.502;2022-08-19T10:50:17;7.05;;;1.70;;
23866;SDS011;12114;53.404;-1.502;2022-08-19T10:53:06;10.23;;;2.03;;
23866;SDS011;12114;53.404;-1.502;2022-08-19T10:55:33;8.05;;;1.60;;
23866;SDS011;12114;53.404;-1.502;2022-08-19T10:58:20;7.35;;;1.60;;
23866;SDS011;12114;53.404;-1.502;2022-08-19T11:00:53;10.23;;;1.75;;
23866;SDS011;12114;53.404;-1.502;2022-08-19T11:03:18;8.55;;;1.75;;
23866;SDS011;12114;53.404;-1.502;2022-08-19T11:05:44;8.13;;;1.30;;
23866;SDS011;12114;53.404;-1.502;2022-08-19T11:08:09;5.60;;;1.23;;
23866;SDS011;12114;53.404;-1.502;2022-08-19T11:10:41;4.78;;;1.10;;
23866;SDS011;12114;53.404;-1.502;2022-08-19T11:13:06;3.67;;;0.80;;
23866;SDS011;12114;53.404;-1.502;2022-08-19T11:15:32;4.32;;;1.20;;
23866;SDS011;12114;53.404;-1.502;2022-08-19T11:17:58;5.43;;;1.30;;
23866;SDS011;12114;53.404;-1.502;2022-08-19T11:20:24;6.78;;;1.13;;
23866;SDS011;12114;53.404;-1.502;2022-08-19T11:22:50;7.53;;;1.70;;
23866;SDS011;12114;53.404;-1.502;2022-08-19T11:25:16;4.35;;;1.00;;
23866;SDS011;12114;53.404;-1.502;2022-08-19T11:27:42;3.47;;;0.93;;
23866;SDS011;12114;53.404;-1.502;2022-08-19T11:30:09;5.90;;;1.38;;
23866;SDS011;12114;53.404;-1.502;2022-08-19T11:32:37;10.73;;;1.42;;
23866;SDS011;12114;53.404;-1.502;2022-08-19T11:35:03;9.60;;;1.85;;
23866;SDS011;12114;53.404;-1.502;2022-08-19T11:37:28;6.32;;;1.42;;
23866;SDS011;12114;53.404;-1.502;2022-08-19T11:39:54;6.43;;;1.20;;
23866;SDS011;12114;53.404;-1.502;2022-08-19T11:42:19;10.52;;;1.90;;
23866;SDS011;12114;53.404;-1.502;2022-08-19T11:45:03;8.38;;;1.40;;
23866;SDS011;12114;53.404;-1.502;2022-08-19T11:47:29;6.63;;;1.38;;
23866;SDS011;12114;53.404;-1.502;2022-08-19T11:49:56;5.25;;;1.00;;
23866;SDS011;12114;53.404;-1.502;2022-08-19T11:52:21;4.07;;;0.90;;
23866;SDS011;12114;53.404;-1.502;2022-08-19T11:54:47;7.38;;;1.35;;
23866;SDS011;12114;53.404;-1.502;2022-08-19T11:57:12;3.95;;;1.13;;
23866;SDS011;12114;53.404;-1.502;2022-08-19T11:59:40;5.10;;;1.00;;
23866;SDS011;12114;53.404;-1.502;2022-08-19T12:02:05;5.10;;;1.20;;
23866;SDS011;12114;53.404;-1.502;2022-08-19T12:04:31;5.78;;;1.25;;
23866;SDS011;12114;53.404;-1.502;2022-08-19T12:06:56;8.30;;;1.40;;
23866;SDS011;12114;53.404;-1.502;2022-08-19T12:09:21;9.65;;;1.52;;
23866;SDS011;12114;53.404;-1.502;2022-08-19T12:11:47;5.82;;;1.35;;
23866;SDS011;12114;53.404;-1.502;2022-08-19T12:14:12;7.82;;;1.30;;
23866;SDS011;12114;53.404;-1.502;2022-08-19T12:16:39;7.53;;;1.70;;
23866;SDS011;12114;53.404;-1.502;2022-08-19T12:19:05;7.22;;;1.60;;
23866;SDS011;12114;53.404;-1.502;2022-08-19T12:21:31;7.22;;;1.45;;
23866;SDS011;12114;53.404;-1.502;2022-08-19T12:23:59;9.02;;;1.55;;
23866;SDS011;12114;53.404;-1.502;2022-08-19T12:26:25;5.32;;;1.17;;
23866;SDS011;12114;53.404;-1.502;2022-08-19T12:28:51;5.15;;;1.20;;
23866;SDS011;12114;53.404;-1.502;2022-08-19T12:31:16;7.13;;;1.48;;
23866;SDS011;12114;53.404;-1.502;2022-08-19T12:33:42;8.27;;;1.75;;
23866;SDS011;12114;53.404;-1.502;2022-08-19T12:36:09;11.50;;;1.55;;
23866;SDS011;12114;53.404;-1.502;2022-08-19T12:38:35;6.75;;;1.42;;
23866;SDS011;12114;53.404;-1.502;2022-08-19T12:41:00;7.15;;;1.48;;
23866;SDS011;12114;53.404;-1.502;2022-08-19T12:43:26;8.18;;;1.63;;
23866;SDS011;12114;53.404;-1.502;2022-08-19T12:45:51;7.68;;;1.30;;
23866;SDS011;12114;53.404;-1.502;2022-08-19T12:48:17;5.72;;;1.17;;
23866;SDS011;12114;53.404;-1.502;2022-08-19T12:50:44;5.00;;;1.15;;
23866;SDS011;12114;53.404;-1.502;2022-08-19T12:53:10;10.18;;;1.45;;
23866;SDS011;12114;53.404;-1.502;2022-08-19T12:55:36;4.90;;;1.10;;
23866;SDS011;12114;53.404;-1.502;2022-08-19T12:58:01;9.45;;;1.35;;
23866;SDS011;12114;53.404;-1.502;2022-08-19T13:00:28;5.03;;;1.15;;
23866;SDS011;12114;53.404;-1.502;2022-08-19T13:02:53;4.03;;;0.85;;
23866;SDS011;12114;53.404;-1.502;2022-08-19T13:05:23;5.45;;;1.08;;
23866;SDS011;12114;53.404;-1.502;2022-08-19T13:07:51;2.95;;;0.70;;
23866;SDS011;12114;53.404;-1.502;2022-08-19T13:10:18;4.60;;;0.70;;
23866;SDS011;12114;53.404;-1.502;2022-08-19T13:12:45;2.60;;;0.60;;
23866;SDS011;12114;53.404;-1.502;2022-08-19T13:15:11;3.15;;;0.63;;
23866;SDS011;12114;53.404;-1.502;2022-08-19T13:17:37;2.83;;;0.70;;
23866;SDS011;12114;53.404;-1.502;2022-08-19T13:20:03;5.28;;;0.77;;
23866;SDS011;12114;53.404;-1.502;2022-08-19T13:22:29;2.70;;;0.60;;
23866;SDS011;12114;53.404;-1.502;2022-08-19T13:24:55;5.13;;;0.68;;
23866;SDS011;12114;53.404;-1.502;2022-08-19T13:27:23;1.90;;;0.60;;
23866;SDS011;12114;53.404;-1.502;2022-08-19T13:29:48;2.95;;;0.68;;
23866;SDS011;12114;53.404;-1.502;2022-08-19T13:32:32;3.25;;;0.80;;
23866;SDS011;12114;53.404;-1.502;2022-08-19T13:35:17;2.72;;;0.57;;
23866;SDS011;12114;53.404;-1.502;2022-08-19T13:37:42;2.80;;;0.60;;
23866;SDS011;12114;53.404;-1.502;2022-08-19T13:40:10;3.17;;;0.88;;
23866;SDS011;12114;53.404;-1.502;2022-08-19T13:42:41;3.67;;;1.02;;
23866;SDS011;12114;53.404;-1.502;2022-08-19T13:45:06;5.50;;;0.50;;
23866;SDS011;12114;53.404;-1.502;2022-08-19T13:47:32;4.40;;;0.77;;
23866;SDS011;12114;53.404;-1.502;2022-08-19T13:49:59;3.53;;;0.55;;
23866;SDS011;12114;53.404;-1.502;2022-08-19T13:52:25;4.47;;;0.90;;
23866;SDS011;12114;53.404;-1.502;2022-08-19T13:54:50;4.07;;;0.55;;
23866;SDS011;12114;53.404;-1.502;2022-08-19T13:57:15;3.60;;;0.95;;
23866;SDS011;12114;53.404;-1.502;2022-08-19T13:59:41;2.42;;;0.52;;
23866;SDS011;12114;53.404;-1.502;2022-08-19T14:02:07;3.83;;;0.60;;
23866;SDS011;12114;53.404;-1.502;2022-08-19T14:04:33;3.45;;;0.50;;
23866;SDS011;12114;53.404;-1.502;2022-08-19T14:06:59;5.53;;;0.90;;
23866;SDS011;12114;53.404;-1.502;2022-08-19T14:09:24;2.20;;;0.60;;
23866;SDS011;12114;53.404;-1.502;2022-08-19T14:11:49;3.13;;;0.80;;
23866;SDS011;12114;53.404;-1.502;2022-08-19T14:14:16;4.68;;;0.75;;
23866;SDS011;12114;53.404;-1.502;2022-08-19T14:16:41;2.72;;;0.68;;
23866;SDS011;12114;53.404;-1.502;2022-08-19T14:19:07;3.92;;;0.57;;
23866;SDS011;12114;53.404;-1.502;2022-08-19T14:21:33;5.07;;;0.93;;
23866;SDS011;12114;53.404;-1.502;2022-08-19T14:24:04;2.50;;;0.70;;
23866;SDS011;12114;53.404;-1.502;2022-08-19T14:26:30;5.55;;;0.90;;
23866;SDS011;12114;53.404;-1.502;2022-08-19T14:28:56;4.85;;;0.60;;
23866;SDS011;12114;53.404;-1.502;2022-08-19T14:31:22;3.60;;;0.40;;
23866;SDS011;12114;53.404;-1.502;2022-08-19T14:33:49;6.18;;;0.80;;
23866;SDS011;12114;53.404;-1.502;2022-08-19T14:36:15;3.80;;;0.50;;
23866;SDS011;12114;53.404;-1.502;2022-08-19T14:38:41;5.05;;;0.60;;
23866;SDS011;12114;53.404;-1.502;2022-08-19T14:41:40;5.20;;;0.60;;
23866;SDS011;12114;53.404;-1.502;2022-08-19T14:43:59;3.67;;;0.60;;
23866;SDS011;12114;53.404;-1.502;2022-08-19T14:46:26;2.42;;;0.77;;